sensor_id;sensor_type;location;lat;lon;timestamp;temperature;humidity
14210;DHT22;7188;56.070;12.698;2024-01-10T00:02:04;0.60;99.90
14210;DHT22;7188;56.070;12.698;2024-01-10T00:04:30;0.60;99.90
14210;DHT22;7188;56.070;12.698;2024-01-10T00:06:56;0.60;99.90
14210;DHT22;7188;56.070;12.698;2024-01-10T00:09:21;0.60;99.90
14210;DHT22;7188;56.070;12.698;2024-01-10T00:11:48;0.60;99.90
14210;DHT22;7188;56.070;12.698;2024-01-10T00:14:13;0.60;99.90
14210;DHT22;7188;56.070;12.698;2024-01-10T00:16:39;0.60;99.90
14210;DHT22;7188;56.070;12.698;2024-01-10T00:19:05;0.60;99.90
14210;DHT22;7188;56.070;12.698;2024-01-10T00:21:30;0.60;99.90
14210;DHT22;7188;56.070;12.698;2024-01-10T00:23:57;0.60;99.90
14210;DHT22;7188;56.070;12.698;2024-01-10T00:26:22;0.60;99.90
14210;DHT22;7188;56.070;12.698;2024-01-10T00:28:48;0.60;99.90
14210;DHT22;7188;56.070;12.698;2024-01-10T00:31:14;0.60;99.90
14210;DHT22;7188;56.070;12.698;2024-01-10T00:33:40;0.60;99.90
14210;DHT22;7188;56.070;12.698;2024-01-10T00:36:06;0.60;99.90
14210;DHT22;7188;56.070;12.698;2024-01-10T00:38:32;0.60;99.90
14210;DHT22;7188;56.070;12.698;2024-01-10T00:40:58;0.50;99.90
14210;DHT22;7188;56.070;12.698;2024-01-10T00:43:24;0.50;99.90
14210;DHT22;7188;56.070;12.698;2024-01-10T00:45:50;0.50;99.90
14210;DHT22;7188;56.070;12.698;2024-01-10T00:48:15;0.50;99.90
14210;DHT22;7188;56.070;12.698;2024-01-10T00:50:42;0.50;99.90
14210;DHT22;7188;56.070;12.698;2024-01-10T00:53:09;0.60;99.90
14210;DHT22;7188;56.070;12.698;2024-01-10T00:55:35;0.50;99.90
14210;DHT22;7188;56.070;12.698;2024-01-10T00:58:01;0.50;99.90
14210;DHT22;7188;56.070;12.698;2024-01-10T01:00:26;0.50;99.90
14210;DHT22;7188;56.070;12.698;2024-01-10T01:02:52;0.50;99.90
14210;DHT22;7188;56.070;12.698;2024-01-10T01:05:18;0.50;99.90
14210;DHT22;7188;56.070;12.698;2024-01-10T01:07:44;0.40;99.90
14210;DHT22;7188;56.070;12.698;2024-01-10T01:10:09;0.40;99.90
14210;DHT22;7188;56.070;12.698;2024-01-10T01:12:35;0.40;99.90
14210;DHT22;7188;56.070;12.698;2024-01-10T01:15:01;0.40;99.90
14210;DHT22;7188;56.070;12.698;2024-01-10T01:17:27;0.40;99.90
14210;DHT22;7188;56.070;12.698;2024-01-10T01:19:52;0.40;99.90
14210;DHT22;7188;56.070;12.698;2024-01-10T01:22:18;0.30;99.90
14210;DHT22;7188;56.070;12.698;2024-01-10T01:24:44;0.40;99.90
14210;DHT22;7188;56.070;12.698;2024-01-10T01:27:13;0.30;99.90
14210;DHT22;7188;56.070;12.698;2024-01-10T01:29:38;0.40;99.90
14210;DHT22;7188;56.070;12.698;2024-01-10T01:32:04;0.40;99.90
14210;DHT22;7188;56.070;12.698;2024-01-10T01:34:30;0.40;99.90
14210;DHT22;7188;56.070;12.698;2024-01-10T01:36:55;0.40;99.90
14210;DHT22;7188;56.070;12.698;2024-01-10T01:39:21;0.40;99.90
14210;DHT22;7188;56.070;12.698;2024-01-10T01:41:46;0.40;99.90
14210;DHT22;7188;56.070;12.698;2024-01-10T01:44:13;0.30;99.90
14210;DHT22;7188;56.070;12.698;2024-01-10T01:46:39;0.30;99.90
14210;DHT22;7188;56.070;12.698;2024-01-10T01:49:06;0.40;99.90
14210;DHT22;7188;56.070;12.698;2024-01-10T01:51:34;0.30;99.90
14210;DHT22;7188;56.070;12.698;2024-01-10T01:54:00;0.30;99.90
14210;DHT22;7188;56.070;12.698;2024-01-10T01:56:26;0.30;99.90
14210;DHT22;7188;56.070;12.698;2024-01-10T01:58:55;0.30;99.90
14210;DHT22;7188;56.070;12.698;2024-01-10T02:01:22;0.30;99.90
14210;DHT22;7188;56.070;12.698;2024-01-10T02:03:48;0.30;99.90
14210;DHT22;7188;56.070;12.698;2024-01-10T02:06:15;0.30;99.90
14210;DHT22;7188;56.070;12.698;2024-01-10T02:08:40;0.20;99.90
14210;DHT22;7188;56.070;12.698;2024-01-10T02:11:06;0.20;99.90
14210;DHT22;7188;56.070;12.698;2024-01-10T02:13:32;0.20;99.90
14210;DHT22;7188;56.070;12.698;2024-01-10T02:15:59;0.20;99.90
14210;DHT22;7188;56.070;12.698;2024-01-10T02:18:25;0.20;99.90
14210;DHT22;7188;56.070;12.698;2024-01-10T02:20:50;0.20;99.90
14210;DHT22;7188;56.070;12.698;2024-01-10T02:23:17;0.20;99.90
14210;DHT22;7188;56.070;12.698;2024-01-10T02:25:43;0.20;99.90
14210;DHT22;7188;56.070;12.698;2024-01-10T02:28:21;0.20;99.90
14210;DHT22;7188;56.070;12.698;2024-01-10T02:30:52;0.20;99.90
14210;DHT22;7188;56.070;12.698;2024-01-10T02:33:18;0.20;99.90
14210;DHT22;7188;56.070;12.698;2024-01-10T02:35:43;0.20;99.90
14210;DHT22;7188;56.070;12.698;2024-01-10T02:38:09;0.10;99.90
14210;DHT22;7188;56.070;12.698;2024-01-10T02:40:35;0.10;99.90
14210;DHT22;7188;56.070;12.698;2024-01-10T02:43:00;0.00;99.90
14210;DHT22;7188;56.070;12.698;2024-01-10T02:45:26;0.00;99.90
14210;DHT22;7188;56.070;12.698;2024-01-10T02:47:51;-0.10;99.90
14210;DHT22;7188;56.070;12.698;2024-01-10T02:50:17;-0.10;99.90
14210;DHT22;7188;56.070;12.698;2024-01-10T02:52:43;-0.10;99.90
14210;DHT22;7188;56.070;12.698;2024-01-10T02:55:08;-0.10;99.90
14210;DHT22;7188;56.070;12.698;2024-01-10T02:57:34;-0.10;99.90
14210;DHT22;7188;56.070;12.698;2024-01-10T03:00:00;-0.10;99.90
14210;DHT22;7188;56.070;12.698;2024-01-10T03:02:25;-0.10;99.90
14210;DHT22;7188;56.070;12.698;2024-01-10T03:04:51;-0.10;99.90
14210;DHT22;7188;56.070;12.698;2024-01-10T03:07:16;-0.10;99.90
14210;DHT22;7188;56.070;12.698;2024-01-10T03:09:42;-0.10;99.90
14210;DHT22;7188;56.070;12.698;2024-01-10T03:12:10;-0.20;99.90
14210;DHT22;7188;56.070;12.698;2024-01-10T03:14:36;-0.20;99.90
14210;DHT22;7188;56.070;12.698;2024-01-10T03:17:01;-0.30;99.90
14210;DHT22;7188;56.070;12.698;2024-01-10T03:19:28;-0.30;99.90
14210;DHT22;7188;56.070;12.698;2024-01-10T03:21:53;-0.30;99.90
14210;DHT22;7188;56.070;12.698;2024-01-10T03:24:19;-0.30;99.90
14210;DHT22;7188;56.070;12.698;2024-01-10T03:26:45;-0.30;99.90
14210;DHT22;7188;56.070;12.698;2024-01-10T03:29:10;-0.30;99.90
14210;DHT22;7188;56.070;12.698;2024-01-10T03:31:36;-0.30;99.90
14210;DHT22;7188;56.070;12.698;2024-01-10T03:34:03;-0.30;99.90
14210;DHT22;7188;56.070;12.698;2024-01-10T03:36:29;-0.30;99.90
14210;DHT22;7188;56.070;12.698;2024-01-10T03:38:55;-0.30;99.90
14210;DHT22;7188;56.070;12.698;2024-01-10T03:41:20;-0.40;99.90
14210;DHT22;7188;56.070;12.698;2024-01-10T03:43:46;-0.40;99.90
14210;DHT22;7188;56.070;12.698;2024-01-10T03:46:13;-0.40;99.90
14210;DHT22;7188;56.070;12.698;2024-01-10T03:48:39;-0.50;99.90
14210;DHT22;7188;56.070;12.698;2024-01-10T03:51:14;-0.50;99.90
14210;DHT22;7188;56.070;12.698;2024-01-10T03:53:40;-0.50;99.90
14210;DHT22;7188;56.070;12.698;2024-01-10T03:56:06;-0.50;99.90
14210;DHT22;7188;56.070;12.698;2024-01-10T03:58:32;-0.50;99.90
14210;DHT22;7188;56.070;12.698;2024-01-10T04:00:57;-0.50;99.90
14210;DHT22;7188;56.070;12.698;2024-01-10T04:03:23;-0.50;99.90
14210;DHT22;7188;56.070;12.698;2024-01-10T04:05:48;-0.50;99.90
14210;DHT22;7188;56.070;12.698;2024-01-10T04:08:14;-0.40;99.90
14210;DHT22;7188;56.070;12.698;2024-01-10T04:10:40;-0.40;99.90
14210;DHT22;7188;56.070;12.698;2024-01-10T04:13:06;-0.40;99.90
14210;DHT22;7188;56.070;12.698;2024-01-10T04:15:32;-0.40;99.90
14210;DHT22;7188;56.070;12.698;2024-01-10T04:18:10;-0.50;99.90
14210;DHT22;7188;56.070;12.698;2024-01-10T04:20:35;-0.50;99.90
14210;DHT22;7188;56.070;12.698;2024-01-10T04:23:01;-0.50;99.90
14210;DHT22;7188;56.070;12.698;2024-01-10T04:25:26;-0.50;99.90
14210;DHT22;7188;56.070;12.698;2024-01-10T04:27:52;-0.50;99.90
14210;DHT22;7188;56.070;12.698;2024-01-10T04:30:18;-0.50;99.90
14210;DHT22;7188;56.070;12.698;2024-01-10T04:32:43;-0.60;99.90
14210;DHT22;7188;56.070;12.698;2024-01-10T04:35:09;-0.60;99.90
14210;DHT22;7188;56.070;12.698;2024-01-10T04:37:35;-0.60;99.90
14210;DHT22;7188;56.070;12.698;2024-01-10T04:40:01;-0.60;99.90
14210;DHT22;7188;56.070;12.698;2024-01-10T04:42:26;-0.70;99.90
14210;DHT22;7188;56.070;12.698;2024-01-10T04:44:52;-0.70;99.90
14210;DHT22;7188;56.070;12.698;2024-01-10T04:47:18;-0.80;99.90
14210;DHT22;7188;56.070;12.698;2024-01-10T04:49:44;-0.80;99.90
14210;DHT22;7188;56.070;12.698;2024-01-10T04:52:09;-0.80;99.90
14210;DHT22;7188;56.070;12.698;2024-01-10T04:54:35;-0.90;99.90
14210;DHT22;7188;56.070;12.698;2024-01-10T04:57:01;-0.90;99.90
14210;DHT22;7188;56.070;12.698;2024-01-10T04:59:26;-1.00;99.90
14210;DHT22;7188;56.070;12.698;2024-01-10T05:01:52;-1.00;99.90
14210;DHT22;7188;56.070;12.698;2024-01-10T05:04:18;-1.00;99.90
14210;DHT22;7188;56.070;12.698;2024-01-10T05:06:44;-1.00;99.90
14210;DHT22;7188;56.070;12.698;2024-01-10T05:09:09;-1.00;99.90
14210;DHT22;7188;56.070;12.698;2024-01-10T05:11:36;-0.90;99.90
14210;DHT22;7188;56.070;12.698;2024-01-10T05:14:02;-0.90;99.90
14210;DHT22;7188;56.070;12.698;2024-01-10T05:16:28;-0.90;99.90
14210;DHT22;7188;56.070;12.698;2024-01-10T05:18:54;-0.90;99.90
14210;DHT22;7188;56.070;12.698;2024-01-10T05:21:20;-0.90;99.90
14210;DHT22;7188;56.070;12.698;2024-01-10T05:23:45;-0.90;99.90
14210;DHT22;7188;56.070;12.698;2024-01-10T05:26:11;-0.90;99.90
14210;DHT22;7188;56.070;12.698;2024-01-10T05:28:37;-1.00;99.90
14210;DHT22;7188;56.070;12.698;2024-01-10T05:31:02;-1.00;99.90
14210;DHT22;7188;56.070;12.698;2024-01-10T05:33:28;-1.00;99.90
14210;DHT22;7188;56.070;12.698;2024-01-10T05:35:54;-1.00;99.90
14210;DHT22;7188;56.070;12.698;2024-01-10T05:38:19;-0.90;99.90
14210;DHT22;7188;56.070;12.698;2024-01-10T05:40:45;-0.90;99.90
14210;DHT22;7188;56.070;12.698;2024-01-10T05:43:11;-1.00;99.90
14210;DHT22;7188;56.070;12.698;2024-01-10T05:45:36;-1.00;99.90
14210;DHT22;7188;56.070;12.698;2024-01-10T05:48:02;-1.00;99.90
14210;DHT22;7188;56.070;12.698;2024-01-10T05:50:28;-1.00;99.90
14210;DHT22;7188;56.070;12.698;2024-01-10T05:52:54;-1.00;99.90
14210;DHT22;7188;56.070;12.698;2024-01-10T05:55:19;-1.00;99.90
14210;DHT22;7188;56.070;12.698;2024-01-10T05:57:48;-1.00;99.90
14210;DHT22;7188;56.070;12.698;2024-01-10T06:00:14;-1.00;99.90
14210;DHT22;7188;56.070;12.698;2024-01-10T06:02:42;-1.00;99.90
14210;DHT22;7188;56.070;12.698;2024-01-10T06:05:09;-1.00;99.90
14210;DHT22;7188;56.070;12.698;2024-01-10T06:07:36;-1.00;99.90
14210;DHT22;7188;56.070;12.698;2024-01-10T06:10:01;-1.00;99.90
14210;DHT22;7188;56.070;12.698;2024-01-10T06:12:27;-1.00;99.90
14210;DHT22;7188;56.070;12.698;2024-01-10T06:14:54;-1.00;99.90
14210;DHT22;7188;56.070;12.698;2024-01-10T06:17:19;-1.00;99.90
14210;DHT22;7188;56.070;12.698;2024-01-10T06:19:45;-1.10;99.90
14210;DHT22;7188;56.070;12.698;2024-01-10T06:22:11;-1.10;99.90
14210;DHT22;7188;56.070;12.698;2024-01-10T06:24:37;-1.10;99.90
14210;DHT22;7188;56.070;12.698;2024-01-10T06:27:09;-1.20;99.90
14210;DHT22;7188;56.070;12.698;2024-01-10T06:29:35;-1.20;99.90
14210;DHT22;7188;56.070;12.698;2024-01-10T06:32:02;-1.10;99.90
14210;DHT22;7188;56.070;12.698;2024-01-10T06:34:28;-1.10;99.90
14210;DHT22;7188;56.070;12.698;2024-01-10T06:36:53;-1.00;99.90
14210;DHT22;7188;56.070;12.698;2024-01-10T06:39:19;-1.00;99.90
14210;DHT22;7188;56.070;12.698;2024-01-10T06:41:48;-1.00;99.90
14210;DHT22;7188;56.070;12.698;2024-01-10T06:44:14;-1.00;99.90
14210;DHT22;7188;56.070;12.698;2024-01-10T06:46:43;-1.00;99.90
14210;DHT22;7188;56.070;12.698;2024-01-10T06:49:09;-0.90;99.90
14210;DHT22;7188;56.070;12.698;2024-01-10T06:51:35;-1.00;99.90
14210;DHT22;7188;56.070;12.698;2024-01-10T06:54:00;-1.00;99.90
14210;DHT22;7188;56.070;12.698;2024-01-10T06:56:29;-1.00;99.90
14210;DHT22;7188;56.070;12.698;2024-01-10T06:58:56;-1.00;99.90
14210;DHT22;7188;56.070;12.698;2024-01-10T07:01:22;-1.00;99.90
14210;DHT22;7188;56.070;12.698;2024-01-10T07:03:47;-1.00;99.90
14210;DHT22;7188;56.070;12.698;2024-01-10T07:06:13;-0.90;99.90
14210;DHT22;7188;56.070;12.698;2024-01-10T07:08:42;-0.90;99.90
14210;DHT22;7188;56.070;12.698;2024-01-10T07:11:10;-0.90;99.90
14210;DHT22;7188;56.070;12.698;2024-01-10T07:13:37;-0.90;99.90
14210;DHT22;7188;56.070;12.698;2024-01-10T07:16:02;-0.90;99.90
14210;DHT22;7188;56.070;12.698;2024-01-10T07:21:41;-0.90;99.90
14210;DHT22;7188;56.070;12.698;2024-01-10T07:24:07;-0.90;99.90
14210;DHT22;7188;56.070;12.698;2024-01-10T07:26:36;-0.90;99.90
14210;DHT22;7188;56.070;12.698;2024-01-10T07:29:02;-0.90;99.90
14210;DHT22;7188;56.070;12.698;2024-01-10T07:31:31;-0.90;99.90
14210;DHT22;7188;56.070;12.698;2024-01-10T07:33:57;-0.80;99.90
14210;DHT22;7188;56.070;12.698;2024-01-10T07:36:25;-0.90;99.90
14210;DHT22;7188;56.070;12.698;2024-01-10T07:38:56;-0.90;99.90
14210;DHT22;7188;56.070;12.698;2024-01-10T07:41:23;-0.90;99.90
14210;DHT22;7188;56.070;12.698;2024-01-10T07:43:49;-0.90;99.90
14210;DHT22;7188;56.070;12.698;2024-01-10T07:46:14;-0.90;99.90
14210;DHT22;7188;56.070;12.698;2024-01-10T07:48:40;-0.90;99.90
14210;DHT22;7188;56.070;12.698;2024-01-10T07:51:06;-0.90;99.90
14210;DHT22;7188;56.070;12.698;2024-01-10T07:53:32;-0.90;99.90
14210;DHT22;7188;56.070;12.698;2024-01-10T07:55:58;-0.90;99.90
14210;DHT22;7188;56.070;12.698;2024-01-10T07:58:24;-0.90;99.90
14210;DHT22;7188;56.070;12.698;2024-01-10T08:00:49;-0.90;99.90
14210;DHT22;7188;56.070;12.698;2024-01-10T08:03:16;-0.90;99.90
14210;DHT22;7188;56.070;12.698;2024-01-10T08:05:42;-0.80;99.90
14210;DHT22;7188;56.070;12.698;2024-01-10T08:08:08;-0.80;99.90
14210;DHT22;7188;56.070;12.698;2024-01-10T08:10:34;-0.90;99.90
14210;DHT22;7188;56.070;12.698;2024-01-10T08:13:00;-0.90;99.90
14210;DHT22;7188;56.070;12.698;2024-01-10T08:15:26;-0.90;99.90
14210;DHT22;7188;56.070;12.698;2024-01-10T08:17:51;-1.00;99.90
14210;DHT22;7188;56.070;12.698;2024-01-10T08:20:18;-0.90;99.90
14210;DHT22;7188;56.070;12.698;2024-01-10T08:22:47;-1.00;99.90
14210;DHT22;7188;56.070;12.698;2024-01-10T08:25:12;-1.00;99.90
14210;DHT22;7188;56.070;12.698;2024-01-10T08:27:41;-1.00;99.90
14210;DHT22;7188;56.070;12.698;2024-01-10T08:30:07;-1.00;99.90
14210;DHT22;7188;56.070;12.698;2024-01-10T08:32:35;-1.00;99.90
14210;DHT22;7188;56.070;12.698;2024-01-10T08:35:02;-1.00;99.90
14210;DHT22;7188;56.070;12.698;2024-01-10T08:37:30;-1.00;99.90
14210;DHT22;7188;56.070;12.698;2024-01-10T08:39:56;-1.00;99.90
14210;DHT22;7188;56.070;12.698;2024-01-10T08:42:21;-1.00;99.90
14210;DHT22;7188;56.070;12.698;2024-01-10T08:44:47;-1.00;99.90
14210;DHT22;7188;56.070;12.698;2024-01-10T08:47:12;-1.00;99.90
14210;DHT22;7188;56.070;12.698;2024-01-10T08:50:00;-1.00;99.90
14210;DHT22;7188;56.070;12.698;2024-01-10T08:52:26;-1.00;99.90
14210;DHT22;7188;56.070;12.698;2024-01-10T08:54:52;-1.10;99.90
14210;DHT22;7188;56.070;12.698;2024-01-10T08:57:17;-1.00;99.90
14210;DHT22;7188;56.070;12.698;2024-01-10T08:59:43;-1.10;99.90
14210;DHT22;7188;56.070;12.698;2024-01-10T09:02:09;-1.00;99.90
14210;DHT22;7188;56.070;12.698;2024-01-10T09:04:34;-1.00;99.90
14210;DHT22;7188;56.070;12.698;2024-01-10T09:07:00;-1.00;99.90
14210;DHT22;7188;56.070;12.698;2024-01-10T09:09:26;-1.00;99.90
14210;DHT22;7188;56.070;12.698;2024-01-10T09:11:52;-0.90;99.90
14210;DHT22;7188;56.070;12.698;2024-01-10T09:14:17;-0.90;99.90
14210;DHT22;7188;56.070;12.698;2024-01-10T09:16:43;-0.90;99.90
14210;DHT22;7188;56.070;12.698;2024-01-10T09:19:09;-0.90;99.90
14210;DHT22;7188;56.070;12.698;2024-01-10T09:21:35;-0.90;99.90
14210;DHT22;7188;56.070;12.698;2024-01-10T09:24:00;-0.90;99.90
14210;DHT22;7188;56.070;12.698;2024-01-10T09:26:28;-0.80;99.90
14210;DHT22;7188;56.070;12.698;2024-01-10T09:28:54;-0.80;99.90
14210;DHT22;7188;56.070;12.698;2024-01-10T09:31:20;-0.80;99.90
14210;DHT22;7188;56.070;12.698;2024-01-10T09:33:45;-0.80;99.90
14210;DHT22;7188;56.070;12.698;2024-01-10T09:36:11;-0.80;99.90
14210;DHT22;7188;56.070;12.698;2024-01-10T09:38:37;-0.70;99.90
14210;DHT22;7188;56.070;12.698;2024-01-10T09:41:04;-0.70;99.90
14210;DHT22;7188;56.070;12.698;2024-01-10T09:43:30;-0.70;99.90
14210;DHT22;7188;56.070;12.698;2024-01-10T09:45:58;-0.70;99.90
14210;DHT22;7188;56.070;12.698;2024-01-10T09:48:25;-0.70;99.90
14210;DHT22;7188;56.070;12.698;2024-01-10T09:50:51;-0.70;99.90
14210;DHT22;7188;56.070;12.698;2024-01-10T09:53:25;-0.70;99.90
14210;DHT22;7188;56.070;12.698;2024-01-10T09:55:52;-0.70;99.90
14210;DHT22;7188;56.070;12.698;2024-01-10T09:58:28;-0.60;99.90
14210;DHT22;7188;56.070;12.698;2024-01-10T10:00:54;-0.60;99.90
14210;DHT22;7188;56.070;12.698;2024-01-10T10:03:20;-0.60;99.90
14210;DHT22;7188;56.070;12.698;2024-01-10T10:05:46;-0.60;99.90
14210;DHT22;7188;56.070;12.698;2024-01-10T10:08:13;-0.50;99.90
14210;DHT22;7188;56.070;12.698;2024-01-10T10:10:41;-0.50;99.90
14210;DHT22;7188;56.070;12.698;2024-01-10T10:13:10;-0.50;99.90
14210;DHT22;7188;56.070;12.698;2024-01-10T10:16:03;-0.50;99.90
14210;DHT22;7188;56.070;12.698;2024-01-10T10:18:30;-0.50;99.90
14210;DHT22;7188;56.070;12.698;2024-01-10T10:21:24;-0.50;99.90
14210;DHT22;7188;56.070;12.698;2024-01-10T10:24:01;-0.40;99.90
14210;DHT22;7188;56.070;12.698;2024-01-10T10:26:28;-0.40;99.90
14210;DHT22;7188;56.070;12.698;2024-01-10T10:28:54;-0.40;99.90
14210;DHT22;7188;56.070;12.698;2024-01-10T10:31:36;-0.50;99.90
14210;DHT22;7188;56.070;12.698;2024-01-10T10:34:02;-0.50;99.90
14210;DHT22;7188;56.070;12.698;2024-01-10T10:36:31;-0.40;99.90
14210;DHT22;7188;56.070;12.698;2024-01-10T10:39:00;-0.50;99.90
14210;DHT22;7188;56.070;12.698;2024-01-10T10:41:30;-0.50;99.90
14210;DHT22;7188;56.070;12.698;2024-01-10T10:43:57;-0.50;99.90
14210;DHT22;7188;56.070;12.698;2024-01-10T10:46:23;-0.50;99.90
14210;DHT22;7188;56.070;12.698;2024-01-10T10:48:52;-0.50;99.90
14210;DHT22;7188;56.070;12.698;2024-01-10T10:51:27;-0.50;99.90
14210;DHT22;7188;56.070;12.698;2024-01-10T10:53:56;-0.40;99.90
14210;DHT22;7188;56.070;12.698;2024-01-10T10:56:24;-0.50;99.90
14210;DHT22;7188;56.070;12.698;2024-01-10T10:58:50;-0.50;99.90
14210;DHT22;7188;56.070;12.698;2024-01-10T11:01:17;-0.40;99.90
14210;DHT22;7188;56.070;12.698;2024-01-10T11:03:43;-0.40;99.90
14210;DHT22;7188;56.070;12.698;2024-01-10T11:06:10;-0.40;99.90
14210;DHT22;7188;56.070;12.698;2024-01-10T11:08:57;-0.40;99.90
14210;DHT22;7188;56.070;12.698;2024-01-10T11:11:34;-0.30;99.90
14210;DHT22;7188;56.070;12.698;2024-01-10T11:19:33;-0.30;99.90
14210;DHT22;7188;56.070;12.698;2024-01-10T11:24:50;-0.20;99.90
14210;DHT22;7188;56.070;12.698;2024-01-10T11:27:16;-0.20;99.90
14210;DHT22;7188;56.070;12.698;2024-01-10T11:29:42;-0.20;99.90
14210;DHT22;7188;56.070;12.698;2024-01-10T11:32:16;-0.20;99.90
14210;DHT22;7188;56.070;12.698;2024-01-10T11:35:15;-0.30;99.90
14210;DHT22;7188;56.070;12.698;2024-01-10T11:37:45;-0.30;99.90
14210;DHT22;7188;56.070;12.698;2024-01-10T11:40:14;-0.30;99.90
14210;DHT22;7188;56.070;12.698;2024-01-10T11:42:51;-0.30;99.90
14210;DHT22;7188;56.070;12.698;2024-01-10T11:48:00;-0.20;99.90
14210;DHT22;7188;56.070;12.698;2024-01-10T11:50:27;-0.30;99.90
14210;DHT22;7188;56.070;12.698;2024-01-10T11:52:54;-0.40;99.90
14210;DHT22;7188;56.070;12.698;2024-01-10T11:55:56;-0.40;99.90
14210;DHT22;7188;56.070;12.698;2024-01-10T11:58:23;-0.30;99.90
14210;DHT22;7188;56.070;12.698;2024-01-10T12:00:49;-0.30;99.90
14210;DHT22;7188;56.070;12.698;2024-01-10T12:03:15;-0.30;99.90
14210;DHT22;7188;56.070;12.698;2024-01-10T12:05:42;-0.20;99.90
14210;DHT22;7188;56.070;12.698;2024-01-10T12:08:09;-0.20;99.90
14210;DHT22;7188;56.070;12.698;2024-01-10T12:10:35;-0.20;99.90
14210;DHT22;7188;56.070;12.698;2024-01-10T12:13:04;-0.20;99.90
14210;DHT22;7188;56.070;12.698;2024-01-10T12:15:30;-0.20;99.90
14210;DHT22;7188;56.070;12.698;2024-01-10T12:17:56;-0.30;99.90
14210;DHT22;7188;56.070;12.698;2024-01-10T12:20:21;-0.20;99.90
14210;DHT22;7188;56.070;12.698;2024-01-10T12:22:47;-0.30;99.90
14210;DHT22;7188;56.070;12.698;2024-01-10T12:25:13;-0.20;99.90
14210;DHT22;7188;56.070;12.698;2024-01-10T12:27:39;-0.20;99.90
14210;DHT22;7188;56.070;12.698;2024-01-10T12:33:27;-0.10;99.90
14210;DHT22;7188;56.070;12.698;2024-01-10T12:36:22;-0.10;99.90
14210;DHT22;7188;56.070;12.698;2024-01-10T12:38:49;-0.10;99.90
14210;DHT22;7188;56.070;12.698;2024-01-10T12:41:16;-0.10;99.90
14210;DHT22;7188;56.070;12.698;2024-01-10T12:43:42;-0.10;99.90
14210;DHT22;7188;56.070;12.698;2024-01-10T12:46:12;-0.10;99.90
14210;DHT22;7188;56.070;12.698;2024-01-10T12:48:39;-0.10;99.90
14210;DHT22;7188;56.070;12.698;2024-01-10T12:51:07;-0.10;99.90
14210;DHT22;7188;56.070;12.698;2024-01-10T12:53:41;-0.10;99.90
14210;DHT22;7188;56.070;12.698;2024-01-10T12:56:08;-0.10;99.90
14210;DHT22;7188;56.070;12.698;2024-01-10T12:58:35;-0.10;99.90
14210;DHT22;7188;56.070;12.698;2024-01-10T13:01:02;-0.10;99.90
14210;DHT22;7188;56.070;12.698;2024-01-10T13:03:29;-0.10;99.90
14210;DHT22;7188;56.070;12.698;2024-01-10T13:05:54;-0.10;99.90
14210;DHT22;7188;56.070;12.698;2024-01-10T13:08:20;-0.20;99.90
14210;DHT22;7188;56.070;12.698;2024-01-10T13:10:46;-0.20;99.90
14210;DHT22;7188;56.070;12.698;2024-01-10T13:16:35;-0.20;99.90
14210;DHT22;7188;56.070;12.698;2024-01-10T13:19:00;-0.20;99.90
14210;DHT22;7188;56.070;12.698;2024-01-10T13:21:26;-0.10;99.90
14210;DHT22;7188;56.070;12.698;2024-01-10T13:23:52;-0.10;99.90
14210;DHT22;7188;56.070;12.698;2024-01-10T13:26:18;-0.20;99.90
14210;DHT22;7188;56.070;12.698;2024-01-10T13:28:43;-0.30;99.90
14210;DHT22;7188;56.070;12.698;2024-01-10T13:31:09;-0.20;99.90
14210;DHT22;7188;56.070;12.698;2024-01-10T13:33:36;-0.30;99.90
14210;DHT22;7188;56.070;12.698;2024-01-10T13:36:03;-0.40;99.90
14210;DHT22;7188;56.070;12.698;2024-01-10T13:38:28;-0.40;99.90
14210;DHT22;7188;56.070;12.698;2024-01-10T13:40:54;-0.40;99.90
14210;DHT22;7188;56.070;12.698;2024-01-10T13:43:28;-0.40;99.90
14210;DHT22;7188;56.070;12.698;2024-01-10T13:45:54;-0.40;99.90
14210;DHT22;7188;56.070;12.698;2024-01-10T13:48:20;-0.30;99.90
14210;DHT22;7188;56.070;12.698;2024-01-10T13:50:45;-0.30;99.90
14210;DHT22;7188;56.070;12.698;2024-01-10T13:53:11;-0.30;99.90
14210;DHT22;7188;56.070;12.698;2024-01-10T13:55:38;-0.30;99.90
14210;DHT22;7188;56.070;12.698;2024-01-10T13:58:04;-0.30;99.90
14210;DHT22;7188;56.070;12.698;2024-01-10T14:00:29;-0.20;99.90
14210;DHT22;7188;56.070;12.698;2024-01-10T14:02:55;-0.30;99.90
14210;DHT22;7188;56.070;12.698;2024-01-10T14:05:28;-0.40;99.90
14210;DHT22;7188;56.070;12.698;2024-01-10T14:07:54;-0.40;99.90
14210;DHT22;7188;56.070;12.698;2024-01-10T14:10:20;-0.40;99.90
14210;DHT22;7188;56.070;12.698;2024-01-10T14:12:45;-0.30;99.90
14210;DHT22;7188;56.070;12.698;2024-01-10T14:15:11;-0.40;99.90
14210;DHT22;7188;56.070;12.698;2024-01-10T14:17:37;-0.40;99.90
14210;DHT22;7188;56.070;12.698;2024-01-10T14:20:03;-0.40;99.90
14210;DHT22;7188;56.070;12.698;2024-01-10T14:22:29;-0.40;99.90
14210;DHT22;7188;56.070;12.698;2024-01-10T14:24:54;-0.50;99.90
14210;DHT22;7188;56.070;12.698;2024-01-10T14:27:20;-0.50;99.90
14210;DHT22;7188;56.070;12.698;2024-01-10T14:29:46;-0.50;99.90
14210;DHT22;7188;56.070;12.698;2024-01-10T14:32:12;-0.50;99.90
14210;DHT22;7188;56.070;12.698;2024-01-10T14:34:40;-0.50;99.90
14210;DHT22;7188;56.070;12.698;2024-01-10T14:37:07;-0.50;99.90
14210;DHT22;7188;56.070;12.698;2024-01-10T14:39:36;-0.40;99.90
14210;DHT22;7188;56.070;12.698;2024-01-10T14:45:27;-0.50;99.90
14210;DHT22;7188;56.070;12.698;2024-01-10T14:47:53;-0.70;99.90
14210;DHT22;7188;56.070;12.698;2024-01-10T14:50:18;-0.70;99.90
14210;DHT22;7188;56.070;12.698;2024-01-10T14:52:44;-0.70;99.90
14210;DHT22;7188;56.070;12.698;2024-01-10T14:55:11;-0.70;99.90
14210;DHT22;7188;56.070;12.698;2024-01-10T14:57:36;-0.70;99.90
14210;DHT22;7188;56.070;12.698;2024-01-10T15:00:02;-0.70;99.90
14210;DHT22;7188;56.070;12.698;2024-01-10T15:02:28;-0.80;99.90
14210;DHT22;7188;56.070;12.698;2024-01-10T15:04:54;-0.80;99.90
14210;DHT22;7188;56.070;12.698;2024-01-10T15:07:19;-0.80;99.90
14210;DHT22;7188;56.070;12.698;2024-01-10T15:09:45;-0.80;99.90
14210;DHT22;7188;56.070;12.698;2024-01-10T15:12:11;-0.80;99.90
14210;DHT22;7188;56.070;12.698;2024-01-10T15:14:38;-0.80;99.90
14210;DHT22;7188;56.070;12.698;2024-01-10T15:17:04;-0.80;99.90
14210;DHT22;7188;56.070;12.698;2024-01-10T15:19:33;-0.90;99.90
14210;DHT22;7188;56.070;12.698;2024-01-10T15:21:59;-0.90;99.90
14210;DHT22;7188;56.070;12.698;2024-01-10T15:24:34;-0.90;99.90
14210;DHT22;7188;56.070;12.698;2024-01-10T15:27:00;-0.90;99.90
14210;DHT22;7188;56.070;12.698;2024-01-10T15:29:28;-0.90;99.90
14210;DHT22;7188;56.070;12.698;2024-01-10T15:31:54;-0.90;99.90
14210;DHT22;7188;56.070;12.698;2024-01-10T15:34:19;-0.80;99.90
14210;DHT22;7188;56.070;12.698;2024-01-10T15:36:45;-0.80;99.90
14210;DHT22;7188;56.070;12.698;2024-01-10T15:39:12;-0.80;99.90
14210;DHT22;7188;56.070;12.698;2024-01-10T15:41:38;-0.90;99.90
14210;DHT22;7188;56.070;12.698;2024-01-10T15:44:04;-0.90;99.90
14210;DHT22;7188;56.070;12.698;2024-01-10T15:46:31;-1.00;99.90
14210;DHT22;7188;56.070;12.698;2024-01-10T15:48:57;-1.00;99.90
14210;DHT22;7188;56.070;12.698;2024-01-10T15:51:23;-1.00;99.90
14210;DHT22;7188;56.070;12.698;2024-01-10T15:53:48;-1.00;99.90
14210;DHT22;7188;56.070;12.698;2024-01-10T15:56:15;-1.00;99.90